createdAt,value
2016-12-09T00:00:13.890Z,16.00
2016-12-09T00:01:13.038Z,16.00
2016-12-09T00:02:11.089Z,16.00
2016-12-09T00:03:11.151Z,15.90
2016-12-09T00:04:10.989Z,15.90
2016-12-09T00:05:11.577Z,15.90
2016-12-09T00:06:10.200Z,16.00
2016-12-09T00:07:09.535Z,15.90
2016-12-09T00:08:11.547Z,15.90
2016-12-09T00:09:11.936Z,15.90
2016-12-09T00:10:13.872Z,15.90
2016-12-09T00:11:10.182Z,15.90
2016-12-09T00:12:12.491Z,15.90
2016-12-09T00:13:11.437Z,15.90
2016-12-09T00:14:13.028Z,15.90
2016-12-09T00:15:12.855Z,15.90
2016-12-09T00:16:12.197Z,15.90
2016-12-09T00:17:12.813Z,15.90
2016-12-09T00:18:11.719Z,15.90
2016-12-09T00:19:12.836Z,15.90
2016-12-09T00:20:11.894Z,15.90
2016-12-09T00:21:13.191Z,15.90
2016-12-09T00:22:11.680Z,15.90
2016-12-09T00:23:12.127Z,15.90
2016-12-09T00:24:11.605Z,15.90
2016-12-09T00:25:14.811Z,15.90
2016-12-09T00:26:12.785Z,15.90
2016-12-09T00:27:11.594Z,15.90
2016-12-09T00:28:11.620Z,15.90
2016-12-09T00:29:11.846Z,15.90
2016-12-09T00:30:10.294Z,15.90
2016-12-09T00:31:11.715Z,15.90
2016-12-09T00:32:12.565Z,15.90
2016-12-09T00:33:12.095Z,15.90
2016-12-09T00:34:11.806Z,15.90
2016-12-09T00:35:12.248Z,15.90
2016-12-09T00:36:11.624Z,15.90
2016-12-09T00:37:11.647Z,15.90
2016-12-09T00:38:12.613Z,15.90
2016-12-09T00:39:11.493Z,15.90
2016-12-09T00:40:12.233Z,15.90
2016-12-09T00:41:11.756Z,15.90
2016-12-09T00:42:14.414Z,15.90
2016-12-09T00:43:11.327Z,15.90
2016-12-09T00:44:11.298Z,15.90
2016-12-09T00:45:11.779Z,15.90
2016-12-09T00:46:12.286Z,15.90
2016-12-09T00:47:08.854Z,15.90
2016-12-09T00:48:11.986Z,15.90
2016-12-09T00:49:11.852Z,15.90
2016-12-09T00:50:11.749Z,15.90
2016-12-09T00:51:12.088Z,15.90
2016-12-09T00:52:11.092Z,15.90
2016-12-09T00:53:11.053Z,15.90
2016-12-09T00:54:12.635Z,15.90
2016-12-09T00:55:12.509Z,15.90
2016-12-09T00:56:12.569Z,15.90
2016-12-09T00:57:12.837Z,15.80
2016-12-09T00:58:12.321Z,15.90
2016-12-09T00:59:11.893Z,15.80
2016-12-09T01:00:13.331Z,15.90
2016-12-09T01:01:13.374Z,15.90
2016-12-09T01:02:09.711Z,15.80
2016-12-09T01:03:12.345Z,15.90
2016-12-09T01:04:13.567Z,15.80
2016-12-09T01:05:12.487Z,15.80
2016-12-09T01:06:11.672Z,15.80
2016-12-09T01:07:11.724Z,15.80
2016-12-09T01:08:11.977Z,15.80
2016-12-09T01:09:10.484Z,15.80
2016-12-09T01:10:13.466Z,15.80
2016-12-09T01:11:11.588Z,15.80
2016-12-09T01:12:13.136Z,15.80
2016-12-09T01:13:11.566Z,15.80
2016-12-09T01:14:12.048Z,15.80
2016-12-09T01:15:09.717Z,15.80
2016-12-09T01:16:13.641Z,15.90
2016-12-09T01:17:13.325Z,15.80
2016-12-09T01:18:14.521Z,15.80
2016-12-09T01:19:12.566Z,15.80
2016-12-09T01:20:11.566Z,15.80
2016-12-09T01:21:12.426Z,15.80
2016-12-09T01:22:12.222Z,15.80
2016-12-09T01:23:13.905Z,15.80
2016-12-09T01:24:12.576Z,15.80
2016-12-09T01:25:11.179Z,15.80
2016-12-09T01:26:12.904Z,15.80
2016-12-09T01:27:13.317Z,15.80
2016-12-09T01:28:12.985Z,15.80
2016-12-09T01:29:13.656Z,15.80
2016-12-09T01:30:11.553Z,15.80
2016-12-09T01:31:11.428Z,15.80
2016-12-09T01:32:12.378Z,15.80
2016-12-09T01:33:12.967Z,15.80
2016-12-09T01:34:12.414Z,15.80
2016-12-09T01:35:12.515Z,15.80
2016-12-09T01:36:10.549Z,15.80
2016-12-09T01:37:10.415Z,15.80
2016-12-09T01:38:12.803Z,15.80
2016-12-09T01:39:12.966Z,15.80
2016-12-09T01:40:13.676Z,15.80
2016-12-09T01:41:12.691Z,15.80
2016-12-09T01:42:12.927Z,15.80
2016-12-09T01:43:10.053Z,15.80
2016-12-09T01:44:13.377Z,15.80
2016-12-09T01:45:12.353Z,15.80
2016-12-09T01:46:11.879Z,15.80
2016-12-09T01:47:12.198Z,15.80
2016-12-09T01:48:12.922Z,15.80
2016-12-09T01:49:12.627Z,15.80
2016-12-09T01:50:09.825Z,15.80
2016-12-09T01:51:11.075Z,15.80
2016-12-09T01:52:11.862Z,15.80
2016-12-09T01:53:12.407Z,15.70
2016-12-09T01:54:17.289Z,15.80
2016-12-09T01:55:12.616Z,15.80
2016-12-09T01:56:12.705Z,15.80
2016-12-09T01:57:13.163Z,15.80
2016-12-09T01:58:13.157Z,15.80
2016-12-09T01:59:11.711Z,15.80
2016-12-09T02:00:13.124Z,15.80
2016-12-09T02:01:11.838Z,15.80
2016-12-09T02:02:11.828Z,15.80
2016-12-09T02:03:13.228Z,15.80
2016-12-09T02:04:11.453Z,15.80
2016-12-09T02:05:12.427Z,15.80
2016-12-09T02:06:13.421Z,15.80
2016-12-09T02:07:13.077Z,15.80
2016-12-09T02:08:12.734Z,15.80
2016-12-09T02:09:12.306Z,15.80
2016-12-09T02:10:13.271Z,15.80
2016-12-09T02:11:11.724Z,15.80
2016-12-09T02:12:13.621Z,15.80
2016-12-09T02:13:13.140Z,15.80
2016-12-09T02:14:12.229Z,15.80
2016-12-09T02:15:12.692Z,15.80
2016-12-09T02:16:12.354Z,15.70
2016-12-09T02:17:09.742Z,15.80
2016-12-09T02:18:12.419Z,15.80
2016-12-09T02:19:12.129Z,15.80
2016-12-09T02:20:12.425Z,15.80
2016-12-09T02:21:12.388Z,15.70
2016-12-09T02:22:09.953Z,15.80
2016-12-09T02:23:12.047Z,15.70
2016-12-09T02:24:10.998Z,15.70
2016-12-09T02:25:13.794Z,15.70
2016-12-09T02:26:12.466Z,15.70
2016-12-09T02:27:12.216Z,15.70
2016-12-09T02:28:13.195Z,15.80
2016-12-09T02:29:11.867Z,15.70
2016-12-09T02:30:14.401Z,15.80
2016-12-09T02:31:12.739Z,15.80
2016-12-09T02:32:12.439Z,15.70
2016-12-09T02:33:12.726Z,15.70
2016-12-09T02:34:14.363Z,15.80
2016-12-09T02:35:12.351Z,15.70
2016-12-09T02:36:12.218Z,15.70
2016-12-09T02:37:11.668Z,15.70
2016-12-09T02:38:14.948Z,15.80
2016-12-09T02:39:12.772Z,15.70
2016-12-09T02:40:13.257Z,15.70
2016-12-09T02:41:13.649Z,15.70
2016-12-09T02:42:13.335Z,15.70
2016-12-09T02:43:11.708Z,15.70
2016-12-09T02:44:13.237Z,15.70
2016-12-09T02:45:12.748Z,15.70
2016-12-09T02:46:11.768Z,15.70
2016-12-09T02:47:18.975Z,15.80
2016-12-09T02:48:13.046Z,15.70
2016-12-09T02:49:12.158Z,15.70
2016-12-09T02:50:13.569Z,15.70
2016-12-09T02:51:11.971Z,15.70
2016-12-09T02:52:11.690Z,15.70
2016-12-09T02:53:12.180Z,15.70
2016-12-09T02:54:11.917Z,15.70
2016-12-09T02:55:13.327Z,15.70
2016-12-09T02:56:11.835Z,15.70
2016-12-09T02:57:11.839Z,15.70
2016-12-09T02:58:12.511Z,15.70
2016-12-09T02:59:12.177Z,15.70
2016-12-09T03:00:11.242Z,15.70
2016-12-09T03:01:11.890Z,15.70
2016-12-09T03:02:12.986Z,15.70
2016-12-09T03:03:13.735Z,15.70
2016-12-09T03:04:11.967Z,15.70
2016-12-09T03:05:11.766Z,15.70
2016-12-09T03:06:12.657Z,15.70
2016-12-09T03:07:12.500Z,15.70
2016-12-09T03:08:13.237Z,15.70
2016-12-09T03:09:11.855Z,15.70
2016-12-09T03:10:12.307Z,15.70
2016-12-09T03:11:12.881Z,15.70
2016-12-09T03:12:11.882Z,15.70
2016-12-09T03:13:13.989Z,15.70
2016-12-09T03:14:12.061Z,15.70
2016-12-09T03:15:11.621Z,15.70
2016-12-09T03:16:12.882Z,15.70
2016-12-09T03:17:11.975Z,15.70
2016-12-09T03:18:12.013Z,15.70
2016-12-09T03:19:12.008Z,15.70
2016-12-09T03:20:14.468Z,15.70
2016-12-09T03:21:12.523Z,15.70
2016-12-09T03:22:12.139Z,15.70
2016-12-09T03:23:11.687Z,15.70
2016-12-09T03:24:12.157Z,15.70
2016-12-09T03:25:12.111Z,15.60
2016-12-09T03:26:11.941Z,15.70
2016-12-09T03:27:11.064Z,15.70
2016-12-09T03:28:11.980Z,15.70
2016-12-09T03:29:12.491Z,15.70
2016-12-09T03:30:13.338Z,15.70
2016-12-09T03:31:12.228Z,15.70
2016-12-09T03:32:12.272Z,15.70
2016-12-09T03:33:11.986Z,15.70
2016-12-09T03:34:09.698Z,15.70
2016-12-09T03:35:14.037Z,15.70
2016-12-09T03:36:11.661Z,15.70
2016-12-09T03:37:12.431Z,15.70
2016-12-09T03:38:11.397Z,15.70
2016-12-09T03:39:09.983Z,15.70
2016-12-09T03:40:12.762Z,15.70
2016-12-09T03:41:11.794Z,15.70
2016-12-09T03:42:12.320Z,15.70
2016-12-09T03:43:09.820Z,15.70
2016-12-09T03:44:11.810Z,15.70
2016-12-09T03:45:12.958Z,15.70
2016-12-09T03:46:12.690Z,15.70
2016-12-09T03:47:12.533Z,15.70
2016-12-09T03:48:10.193Z,15.70
2016-12-09T03:49:10.153Z,15.70
2016-12-09T03:50:13.128Z,15.70
2016-12-09T03:51:11.199Z,15.70
2016-12-09T03:52:11.308Z,15.70
2016-12-09T03:53:11.823Z,15.70
2016-12-09T03:54:14.476Z,15.70
2016-12-09T03:55:12.490Z,15.70
2016-12-09T03:56:12.175Z,15.70
2016-12-09T03:57:11.130Z,15.70
2016-12-09T03:58:09.427Z,15.70
2016-12-09T03:59:11.788Z,15.70
2016-12-09T04:00:11.687Z,15.70
2016-12-09T04:01:12.308Z,15.70
2016-12-09T04:02:11.369Z,15.70
2016-12-09T04:03:11.881Z,15.70
2016-12-09T04:04:10.729Z,15.70
2016-12-09T04:05:11.423Z,15.70
2016-12-09T04:06:13.037Z,15.70
2016-12-09T04:07:13.602Z,15.60
2016-12-09T04:08:12.402Z,15.70
2016-12-09T04:09:11.357Z,15.70
2016-12-09T04:10:12.357Z,15.70
2016-12-09T04:11:11.451Z,15.70
2016-12-09T04:12:11.556Z,15.60
2016-12-09T04:13:12.536Z,15.70
2016-12-09T04:14:12.119Z,15.60
2016-12-09T04:15:11.608Z,15.70
2016-12-09T04:16:11.666Z,15.60
2016-12-09T04:17:12.309Z,15.60
2016-12-09T04:18:11.918Z,15.60
2016-12-09T04:19:12.172Z,15.60
2016-12-09T04:20:12.817Z,15.60
2016-12-09T04:21:14.617Z,15.60
2016-12-09T04:22:11.850Z,15.60
2016-12-09T04:23:12.336Z,15.60
2016-12-09T04:24:12.248Z,15.60
2016-12-09T04:25:13.336Z,15.60
2016-12-09T04:26:12.353Z,15.60
2016-12-09T04:27:11.475Z,15.60
2016-12-09T04:28:10.053Z,15.60
2016-12-09T04:29:11.803Z,15.60
2016-12-09T04:30:12.163Z,15.60
2016-12-09T04:31:11.755Z,15.60
2016-12-09T04:32:11.601Z,15.60
2016-12-09T04:33:14.578Z,15.60
2016-12-09T04:34:12.154Z,15.60
2016-12-09T04:35:13.032Z,15.60
2016-12-09T04:36:11.124Z,15.60
2016-12-09T04:37:11.853Z,15.60
2016-12-09T04:38:13.364Z,15.60
2016-12-09T04:39:11.705Z,15.60
2016-12-09T04:40:13.490Z,15.60
2016-12-09T04:41:11.943Z,15.60
2016-12-09T04:42:11.782Z,15.60
2016-12-09T04:43:10.144Z,15.60
2016-12-09T04:44:12.491Z,15.60
2016-12-09T04:45:12.002Z,15.60
2016-12-09T04:46:14.453Z,15.60
2016-12-09T04:47:11.560Z,15.60
2016-12-09T04:48:12.097Z,15.60
2016-12-09T04:49:11.021Z,15.60
2016-12-09T04:50:11.110Z,15.60
2016-12-09T04:51:11.476Z,15.60
2016-12-09T04:52:12.019Z,15.60
2016-12-09T04:53:12.340Z,15.60
2016-12-09T04:54:12.021Z,15.60
2016-12-09T04:55:12.501Z,15.60
2016-12-09T04:56:11.972Z,15.60
2016-12-09T04:57:11.752Z,15.60
2016-12-09T04:58:12.162Z,15.60
2016-12-09T04:59:11.874Z,15.60
2016-12-09T05:00:12.442Z,15.60
2016-12-09T05:01:13.045Z,15.60
2016-12-09T05:02:11.443Z,15.60
2016-12-09T05:03:09.948Z,15.60
2016-12-09T05:04:11.646Z,15.60
2016-12-09T05:05:11.798Z,15.60
2016-12-09T05:06:11.833Z,15.60
2016-12-09T05:07:13.438Z,15.60
2016-12-09T05:08:11.499Z,15.60
2016-12-09T05:09:11.963Z,15.60
2016-12-09T05:10:13.177Z,15.60
2016-12-09T05:11:12.908Z,15.60
2016-12-09T05:12:13.472Z,15.60
2016-12-09T05:13:11.410Z,15.60
2016-12-09T05:14:12.493Z,15.60
2016-12-09T05:15:11.490Z,15.60
2016-12-09T05:16:11.596Z,15.60
2016-12-09T05:17:12.378Z,15.60
2016-12-09T05:18:12.209Z,15.60
2016-12-09T05:19:11.201Z,15.60
2016-12-09T05:20:11.511Z,15.60
2016-12-09T05:21:11.440Z,15.60
2016-12-09T05:22:12.000Z,15.60
2016-12-09T05:23:11.989Z,15.60
2016-12-09T05:24:12.568Z,15.60
2016-12-09T05:25:15.739Z,15.60
2016-12-09T05:26:13.524Z,15.60
2016-12-09T05:27:12.647Z,15.60
2016-12-09T05:28:11.500Z,15.60
2016-12-09T05:29:11.720Z,15.60
2016-12-09T05:30:12.260Z,15.60
2016-12-09T05:31:11.146Z,15.60
2016-12-09T05:32:11.200Z,15.60
2016-12-09T05:33:11.862Z,15.60
2016-12-09T05:34:10.216Z,15.60
2016-12-09T05:35:11.682Z,15.60
2016-12-09T05:36:11.693Z,15.60
2016-12-09T05:37:11.763Z,15.60
2016-12-09T05:38:13.322Z,15.60
2016-12-09T05:39:12.473Z,15.60
2016-12-09T05:40:13.159Z,15.60
2016-12-09T05:41:09.678Z,15.60
2016-12-09T05:42:11.667Z,15.60
2016-12-09T05:43:11.696Z,15.60
2016-12-09T05:44:11.681Z,15.60
2016-12-09T05:45:12.364Z,15.60
2016-12-09T05:46:11.986Z,15.60
2016-12-09T05:47:12.634Z,15.60
2016-12-09T05:48:12.204Z,15.60
2016-12-09T05:49:11.217Z,15.60
2016-12-09T05:50:12.850Z,15.60
2016-12-09T05:51:11.877Z,15.60
2016-12-09T05:52:12.447Z,15.60
2016-12-09T05:53:11.341Z,15.60
2016-12-09T05:54:12.267Z,15.60
2016-12-09T05:55:13.714Z,15.60
2016-12-09T05:56:13.736Z,15.60
2016-12-09T05:57:10.513Z,15.60
2016-12-09T05:58:11.782Z,15.60
2016-12-09T05:59:10.386Z,15.60
2016-12-09T06:00:12.247Z,15.60
2016-12-09T06:01:11.291Z,15.60
2016-12-09T06:02:11.196Z,15.60
2016-12-09T06:03:11.073Z,15.60
2016-12-09T06:04:11.802Z,15.60
2016-12-09T06:05:11.828Z,15.60
2016-12-09T06:06:11.746Z,15.60
2016-12-09T06:07:11.678Z,15.60
2016-12-09T06:08:12.633Z,15.60
2016-12-09T06:09:12.245Z,15.60
2016-12-09T06:10:13.179Z,15.60
2016-12-09T06:11:11.746Z,15.60
2016-12-09T06:12:12.314Z,15.60
2016-12-09T06:13:11.284Z,15.60
2016-12-09T06:14:11.806Z,15.60
2016-12-09T06:15:12.160Z,15.60
2016-12-09T06:16:11.885Z,15.60
2016-12-09T06:17:11.896Z,15.60
2016-12-09T06:18:11.928Z,15.50
2016-12-09T06:19:12.730Z,15.60
2016-12-09T06:20:12.898Z,15.60
2016-12-09T06:21:13.426Z,15.60
2016-12-09T06:22:12.258Z,15.60
2016-12-09T06:23:12.920Z,15.60
2016-12-09T06:24:13.217Z,15.60
2016-12-09T06:25:12.982Z,15.60
2016-12-09T06:26:13.525Z,15.50
2016-12-09T06:27:09.810Z,15.60
2016-12-09T06:28:09.601Z,15.60
2016-12-09T06:29:13.420Z,15.60
2016-12-09T06:30:11.595Z,15.60
2016-12-09T06:31:11.622Z,15.60
2016-12-09T06:32:12.504Z,15.60
2016-12-09T06:33:13.275Z,15.60
2016-12-09T06:34:11.315Z,15.50
2016-12-09T06:35:11.919Z,15.60
2016-12-09T06:36:11.596Z,15.50
2016-12-09T06:37:12.326Z,15.50
2016-12-09T06:38:11.946Z,15.50
2016-12-09T06:39:11.822Z,15.50
2016-12-09T06:40:12.976Z,15.60
2016-12-09T06:41:11.961Z,15.60
2016-12-09T06:42:12.624Z,15.60
2016-12-09T06:43:11.693Z,15.50
2016-12-09T06:44:11.697Z,15.50
2016-12-09T06:45:09.480Z,15.60
2016-12-09T06:46:11.933Z,15.50
2016-12-09T06:47:13.673Z,15.60
2016-12-09T06:48:09.548Z,15.60
2016-12-09T06:49:12.416Z,15.60
2016-12-09T06:50:11.439Z,15.60
2016-12-09T06:51:12.173Z,15.50
2016-12-09T06:52:11.273Z,15.60
2016-12-09T06:53:11.766Z,15.60
2016-12-09T06:54:13.106Z,15.60
2016-12-09T06:55:11.854Z,15.50
2016-12-09T06:56:12.500Z,15.60
2016-12-09T06:57:12.851Z,15.60
2016-12-09T06:58:12.328Z,15.60
2016-12-09T06:59:11.383Z,15.60
2016-12-09T07:00:12.162Z,15.60
2016-12-09T07:01:12.060Z,15.60
2016-12-09T07:02:11.923Z,15.60
2016-12-09T07:03:12.695Z,15.50
2016-12-09T07:04:09.620Z,15.60
2016-12-09T07:05:11.123Z,15.60
2016-12-09T07:06:11.124Z,15.50
2016-12-09T07:07:11.645Z,15.60
2016-12-09T07:08:12.165Z,15.50
2016-12-09T07:09:11.961Z,15.50
2016-12-09T07:10:11.841Z,15.50
2016-12-09T07:11:13.912Z,15.50
2016-12-09T07:12:12.275Z,15.60
2016-12-09T07:13:12.475Z,15.60
2016-12-09T07:14:11.502Z,15.60
2016-12-09T07:15:11.480Z,15.60
2016-12-09T07:16:12.004Z,15.60
2016-12-09T07:17:11.614Z,15.70
2016-12-09T07:18:12.421Z,15.70
2016-12-09T07:19:11.989Z,15.70
2016-12-09T07:20:11.620Z,15.80
2016-12-09T07:21:12.179Z,15.80
2016-12-09T07:22:09.589Z,15.80
2016-12-09T07:23:12.529Z,15.80
2016-12-09T07:24:13.262Z,15.80
2016-12-09T07:25:13.057Z,15.80
2016-12-09T07:26:12.711Z,15.70
2016-12-09T07:27:12.478Z,15.70
2016-12-09T07:28:11.943Z,15.70
2016-12-09T07:29:11.883Z,15.70
2016-12-09T07:30:13.612Z,15.70
2016-12-09T07:31:12.634Z,15.70
2016-12-09T07:32:08.777Z,15.70
2016-12-09T07:33:12.733Z,15.80
2016-12-09T07:34:11.855Z,15.80
2016-12-09T07:35:12.297Z,15.80
2016-12-09T07:36:12.324Z,15.80
2016-12-09T07:37:11.333Z,15.80
2016-12-09T07:38:11.863Z,15.80
2016-12-09T07:39:12.373Z,15.80
2016-12-09T07:40:11.926Z,15.80
2016-12-09T07:41:11.807Z,15.80
2016-12-09T07:42:12.370Z,15.80
2016-12-09T07:43:11.663Z,15.80
2016-12-09T07:44:10.417Z,15.90
2016-12-09T07:45:11.722Z,15.80
2016-12-09T07:46:11.716Z,15.80
2016-12-09T07:47:11.888Z,15.80
2016-12-09T07:48:11.948Z,15.80
2016-12-09T07:49:11.968Z,15.80
2016-12-09T07:50:11.831Z,15.80
2016-12-09T07:51:12.003Z,15.80
2016-12-09T07:52:11.747Z,15.80
2016-12-09T07:53:12.326Z,15.80
2016-12-09T07:54:12.491Z,15.80
2016-12-09T07:55:12.986Z,15.80
2016-12-09T07:56:11.050Z,15.80
2016-12-09T07:57:11.098Z,15.80
2016-12-09T07:58:11.079Z,15.80
2016-12-09T07:59:11.109Z,15.80
2016-12-09T08:00:12.939Z,15.90
2016-12-09T08:01:13.278Z,15.80
2016-12-09T08:02:11.211Z,15.80
2016-12-09T08:03:12.091Z,15.80
2016-12-09T08:04:11.417Z,15.80
2016-12-09T08:05:12.102Z,15.80
2016-12-09T08:06:11.206Z,15.80
2016-12-09T08:07:11.845Z,15.80
2016-12-09T08:08:12.286Z,15.80
2016-12-09T08:09:11.742Z,15.80
2016-12-09T08:10:12.981Z,15.80
2016-12-09T08:11:12.837Z,15.80
2016-12-09T08:12:12.604Z,15.80
2016-12-09T08:13:11.918Z,15.90
2016-12-09T08:14:11.726Z,15.90
2016-12-09T08:15:11.758Z,15.90
2016-12-09T08:16:12.391Z,15.90
2016-12-09T08:17:12.199Z,15.90
2016-12-09T08:18:10.832Z,15.80
2016-12-09T08:19:12.779Z,15.90
2016-12-09T08:20:11.743Z,15.80
2016-12-09T08:21:13.269Z,15.80
2016-12-09T08:22:11.811Z,15.80
2016-12-09T08:23:11.827Z,15.80
2016-12-09T08:24:13.473Z,15.80
2016-12-09T08:25:14.100Z,15.80
2016-12-09T08:26:12.254Z,15.90
2016-12-09T08:27:12.130Z,15.90
2016-12-09T08:28:12.299Z,15.90
2016-12-09T08:29:12.194Z,15.90
2016-12-09T08:30:12.710Z,15.90
2016-12-09T08:31:12.208Z,15.90
2016-12-09T08:32:11.919Z,15.90
2016-12-09T08:33:12.437Z,15.90
2016-12-09T08:34:13.074Z,15.90
2016-12-09T08:35:11.881Z,15.90
2016-12-09T08:36:12.569Z,15.90
2016-12-09T08:37:11.649Z,15.90
2016-12-09T08:38:11.713Z,15.90
2016-12-09T08:39:11.638Z,15.90
2016-12-09T08:40:10.200Z,15.90
2016-12-09T08:41:12.288Z,15.90
2016-12-09T08:42:11.348Z,15.90
2016-12-09T08:43:11.691Z,15.90
2016-12-09T08:44:11.696Z,15.90
2016-12-09T08:45:13.190Z,15.90
2016-12-09T08:46:11.787Z,15.90
2016-12-09T08:47:11.280Z,15.90
2016-12-09T08:48:11.350Z,15.90
2016-12-09T08:49:11.959Z,15.90
2016-12-09T08:50:12.512Z,15.90
2016-12-09T08:51:12.013Z,15.90
2016-12-09T08:52:12.481Z,15.90
2016-12-09T08:53:12.136Z,15.90
2016-12-09T08:54:11.622Z,15.90
2016-12-09T08:55:12.756Z,15.90
2016-12-09T08:56:10.346Z,15.90
2016-12-09T08:57:13.334Z,15.90
2016-12-09T08:58:12.973Z,15.90
2016-12-09T08:59:10.630Z,16.00
2016-12-09T09:00:12.472Z,16.00
2016-12-09T09:01:11.436Z,16.00
2016-12-09T09:02:11.472Z,16.00
2016-12-09T09:03:11.452Z,16.00
2016-12-09T09:04:09.247Z,16.00
2016-12-09T09:05:12.423Z,16.00
2016-12-09T09:06:11.431Z,16.00
2016-12-09T09:07:12.970Z,16.00
2016-12-09T09:08:11.853Z,16.00
2016-12-09T09:09:11.848Z,16.00
2016-12-09T09:10:12.475Z,16.00
2016-12-09T09:11:11.664Z,16.00
2016-12-09T09:12:12.131Z,16.10
2016-12-09T09:13:11.969Z,16.10
2016-12-09T09:14:11.972Z,16.00
2016-12-09T09:15:10.258Z,16.00
2016-12-09T09:16:12.283Z,16.00
2016-12-09T09:17:12.182Z,16.00
2016-12-09T09:18:11.237Z,16.00
2016-12-09T09:19:11.711Z,16.00
2016-12-09T09:20:12.371Z,16.00
2016-12-09T09:21:11.879Z,16.00
2016-12-09T09:22:12.375Z,16.00
2016-12-09T09:23:11.296Z,16.00
2016-12-09T09:24:11.384Z,16.00
2016-12-09T09:25:11.213Z,16.00
2016-12-09T09:26:12.293Z,16.00
2016-12-09T09:27:11.181Z,16.00
2016-12-09T09:28:11.721Z,16.00
2016-12-09T09:29:11.681Z,16.00
2016-12-09T09:30:12.212Z,16.00
2016-12-09T09:31:11.742Z,16.00
2016-12-09T09:32:11.681Z,16.00
2016-12-09T09:33:11.716Z,16.00
2016-12-09T09:34:11.707Z,16.00
2016-12-09T09:35:12.349Z,16.00
2016-12-09T09:36:11.235Z,16.00
2016-12-09T09:37:08.966Z,16.00
2016-12-09T09:38:12.816Z,16.00
2016-12-09T09:39:12.300Z,16.00
2016-12-09T09:40:14.478Z,16.00
2016-12-09T09:41:10.094Z,16.00
2016-12-09T09:42:12.561Z,16.00
2016-12-09T09:43:11.513Z,16.00
2016-12-09T09:44:12.014Z,16.00
2016-12-09T09:45:12.021Z,16.00
2016-12-09T09:46:10.899Z,16.00
2016-12-09T09:47:13.060Z,16.00
2016-12-09T09:48:11.410Z,16.00
2016-12-09T09:49:12.297Z,16.00
2016-12-09T09:50:11.691Z,16.00
2016-12-09T09:51:13.249Z,16.00
2016-12-09T09:52:11.703Z,16.00
2016-12-09T09:53:11.765Z,16.00
2016-12-09T09:54:12.593Z,16.00
2016-12-09T09:55:13.977Z,16.00
2016-12-09T09:56:11.900Z,16.00
2016-12-09T09:57:13.602Z,16.00
2016-12-09T09:58:12.096Z,16.00
2016-12-09T09:59:11.170Z,16.00
2016-12-09T10:00:08.845Z,16.00
2016-12-09T10:01:11.415Z,16.10
2016-12-09T10:02:12.235Z,16.00
2016-12-09T10:03:11.342Z,16.00
2016-12-09T10:04:11.300Z,16.00
2016-12-09T10:05:12.079Z,16.00
2016-12-09T10:06:12.645Z,16.00
2016-12-09T10:07:12.492Z,16.00
2016-12-09T10:08:13.049Z,16.00
2016-12-09T10:09:11.806Z,16.00
2016-12-09T10:10:11.798Z,16.00
2016-12-09T10:11:11.336Z,16.00
2016-12-09T10:12:11.376Z,16.00
2016-12-09T10:13:12.032Z,16.00
2016-12-09T10:14:11.532Z,16.10
2016-12-09T10:15:12.286Z,16.00
2016-12-09T10:16:11.764Z,16.00
2016-12-09T10:17:12.656Z,16.00
2016-12-09T10:18:11.453Z,16.00
2016-12-09T10:19:11.470Z,16.00
2016-12-09T10:20:11.855Z,16.00
2016-12-09T10:21:12.397Z,16.00
2016-12-09T10:22:12.165Z,16.00
2016-12-09T10:23:12.825Z,16.00
2016-12-09T10:24:11.885Z,16.00
2016-12-09T10:25:14.037Z,16.00
2016-12-09T10:26:11.086Z,16.00
2016-12-09T10:27:11.331Z,16.00
2016-12-09T10:28:11.837Z,16.00
2016-12-09T10:29:12.485Z,16.00
2016-12-09T10:30:12.206Z,16.00
2016-12-09T10:31:11.235Z,16.00
2016-12-09T10:32:11.208Z,16.00
2016-12-09T10:33:11.774Z,16.00
2016-12-09T10:34:12.244Z,16.00
2016-12-09T10:35:11.295Z,16.00
2016-12-09T10:36:12.029Z,16.10
2016-12-09T10:37:09.971Z,16.10
2016-12-09T10:38:11.221Z,16.00
2016-12-09T10:39:12.890Z,16.00
2016-12-09T10:40:10.986Z,16.10
2016-12-09T10:41:13.927Z,16.10
2016-12-09T10:42:12.377Z,16.10
2016-12-09T10:43:09.780Z,16.10
2016-12-09T10:44:12.677Z,16.10
2016-12-09T10:45:12.638Z,16.10
2016-12-09T10:46:11.770Z,16.10
2016-12-09T10:47:12.391Z,16.10
2016-12-09T10:48:11.866Z,16.10
2016-12-09T10:49:12.752Z,16.10
2016-12-09T10:50:12.189Z,16.10
2016-12-09T10:51:12.858Z,16.10
2016-12-09T10:52:12.343Z,16.10
2016-12-09T10:53:09.155Z,16.10
2016-12-09T10:54:11.598Z,16.10
2016-12-09T10:55:11.636Z,16.10
2016-12-09T10:56:11.675Z,16.10
2016-12-09T10:57:12.366Z,16.10
2016-12-09T10:58:11.344Z,16.10
2016-12-09T10:59:12.099Z,16.10
2016-12-09T11:00:11.027Z,16.10
2016-12-09T11:01:12.584Z,16.10
2016-12-09T11:02:12.009Z,16.10
2016-12-09T11:03:11.008Z,16.10
2016-12-09T11:04:11.823Z,16.10
2016-12-09T11:05:12.312Z,16.10
2016-12-09T11:06:08.995Z,16.10
2016-12-09T11:07:11.521Z,16.10
2016-12-09T11:08:11.538Z,16.10
2016-12-09T11:09:13.106Z,16.10
2016-12-09T11:10:11.301Z,16.10
2016-12-09T11:11:09.183Z,16.10
2016-12-09T11:12:11.721Z,16.10
2016-12-09T11:13:13.376Z,16.10
2016-12-09T11:14:11.872Z,16.10
2016-12-09T11:15:12.348Z,16.10
2016-12-09T11:16:11.393Z,16.10
2016-12-09T11:17:11.628Z,16.10
2016-12-09T11:18:13.156Z,16.10
2016-12-09T11:19:12.071Z,16.10
2016-12-09T11:20:11.577Z,16.10
2016-12-09T11:21:11.619Z,16.10
2016-12-09T11:22:12.197Z,16.10
2016-12-09T11:23:12.934Z,16.10
2016-12-09T11:24:10.592Z,16.10
2016-12-09T11:25:12.574Z,16.10
2016-12-09T11:26:11.200Z,16.10
2016-12-09T11:27:11.783Z,16.10
2016-12-09T11:28:11.880Z,16.10
2016-12-09T11:29:12.399Z,16.10
2016-12-09T11:30:11.339Z,16.10
2016-12-09T11:31:12.563Z,16.10
2016-12-09T11:32:14.177Z,16.10
2016-12-09T11:33:12.095Z,16.20
2016-12-09T11:34:11.338Z,16.10
2016-12-09T11:35:11.275Z,16.10
2016-12-09T11:36:11.714Z,16.10
2016-12-09T11:37:11.812Z,16.10
2016-12-09T11:38:13.456Z,16.10
2016-12-09T11:39:11.918Z,16.10
2016-12-09T11:40:11.913Z,16.10
2016-12-09T11:41:08.568Z,16.10
2016-12-09T11:42:11.111Z,16.10
2016-12-09T11:43:12.055Z,16.10
2016-12-09T11:44:10.999Z,16.10
2016-12-09T11:45:11.094Z,16.10
2016-12-09T11:46:10.918Z,16.10
2016-12-09T11:47:11.381Z,16.10
2016-12-09T11:48:12.035Z,16.20
2016-12-09T11:49:12.028Z,16.20
2016-12-09T11:50:12.698Z,16.10
2016-12-09T11:51:12.383Z,16.20
2016-12-09T11:52:11.859Z,16.20
2016-12-09T11:53:11.895Z,16.10
2016-12-09T11:54:11.995Z,16.20
2016-12-09T11:55:12.969Z,16.20
2016-12-09T11:56:11.258Z,16.20
2016-12-09T11:57:08.791Z,16.20
2016-12-09T11:58:12.470Z,16.20
2016-12-09T11:59:12.145Z,16.20
2016-12-09T12:00:12.045Z,16.20
2016-12-09T12:01:09.285Z,16.20
2016-12-09T12:02:11.999Z,16.20
2016-12-09T12:03:13.613Z,16.20
2016-12-09T12:04:11.518Z,16.20
2016-12-09T12:05:12.075Z,16.20
2016-12-09T12:06:11.738Z,16.20
2016-12-09T12:07:12.440Z,16.20
2016-12-09T12:08:11.353Z,16.20
2016-12-09T12:09:11.867Z,16.10
2016-12-09T12:10:11.737Z,16.20
2016-12-09T12:11:11.891Z,16.20
2016-12-09T12:12:09.106Z,16.20
2016-12-09T12:13:11.350Z,16.20
2016-12-09T12:14:11.869Z,16.20
2016-12-09T12:15:10.450Z,16.20
2016-12-09T12:16:12.780Z,16.20
2016-12-09T12:17:12.490Z,16.20
2016-12-09T12:18:13.026Z,16.20
2016-12-09T12:19:10.989Z,16.20
2016-12-09T12:20:11.849Z,16.20
2016-12-09T12:21:12.493Z,16.20
2016-12-09T12:22:12.120Z,16.20
2016-12-09T12:23:12.078Z,16.20
2016-12-09T12:24:11.087Z,16.20
2016-12-09T12:25:11.058Z,16.20
2016-12-09T12:26:11.008Z,16.20
2016-12-09T12:27:11.521Z,16.20
2016-12-09T12:28:11.446Z,16.20
2016-12-09T12:29:11.367Z,16.20
2016-12-09T12:30:11.338Z,16.20
2016-12-09T12:31:11.338Z,16.20
2016-12-09T12:32:11.873Z,16.20
2016-12-09T12:33:12.311Z,16.20
2016-12-09T12:34:11.869Z,16.20
2016-12-09T12:35:13.333Z,16.20
2016-12-09T12:36:11.217Z,16.20
2016-12-09T12:37:11.170Z,16.20
2016-12-09T12:38:11.924Z,16.20
2016-12-09T12:39:11.844Z,16.20
2016-12-09T12:40:11.616Z,16.20
2016-12-09T12:41:11.676Z,16.20
2016-12-09T12:42:10.327Z,16.20
2016-12-09T12:43:11.629Z,16.20
2016-12-09T12:44:12.824Z,16.20
2016-12-09T12:45:11.821Z,16.20
2016-12-09T12:46:12.908Z,16.20
2016-12-09T12:47:13.415Z,16.20
2016-12-09T12:48:11.980Z,16.20
2016-12-09T12:49:11.413Z,16.20
2016-12-09T12:50:11.302Z,16.20
2016-12-09T12:51:11.654Z,16.20
2016-12-09T12:52:13.144Z,16.20